Time;durP1;ratioP1;P1;durP2;ratioP2;P2;SDS_P1;SDS_P2;PMS_P1;PMS_P2;Temp;Humidity;BMP_temperature;BMP_pressure;BME280_temperature;BME280_humidity;BME280_pressure;Samples;Min_cycle;Max_cycle;Signal;HPM_P1;HPM_P2
2021/12/20 00:01:52;;;;;;;7.72;4.03;;;;;;;-3.53;74.86;96883.56;4996892;28;20108;-87
2021/12/20 00:04:20;;;;;;;7.38;3.97;;;;;;;-3.50;75.67;96898.03;4997548;28;20089;-87
2021/12/20 00:06:47;;;;;;;7.60;3.58;;;;;;;-3.47;75.51;96909.97;4997210;28;20054;-85
2021/12/20 00:09:15;;;;;;;5.47;3.75;;;;;;;-3.53;75.41;96898.88;4997159;28;20089;-84
2021/12/20 00:11:42;;;;;;;6.65;3.95;;;;;;;-3.61;75.67;96894.53;5027463;28;20139;-84
2021/12/20 00:14:09;;;;;;;7.75;3.97;;;;;;;-3.53;75.48;96909.09;4997165;28;20145;-83
2021/12/20 00:16:36;;;;;;;4.80;3.53;;;;;;;-3.46;75.34;96909.13;4979153;28;20046;-83
2021/12/20 00:19:03;;;;;;;7.00;3.90;;;;;;;-3.61;75.24;96885.16;4979624;28;20414;-86
2021/12/20 00:21:30;;;;;;;6.20;3.50;;;;;;;-3.51;75.35;96919.28;4997333;28;20054;-84
2021/12/20 00:23:57;;;;;;;5.78;3.50;;;;;;;-3.65;75.50;96914.03;4996717;28;20561;-84
2021/12/20 00:26:24;;;;;;;6.72;3.42;;;;;;;-3.59;75.24;96926.00;4996790;28;20062;-84
2021/12/20 00:28:51;;;;;;;6.35;3.10;;;;;;;-3.76;75.47;96910.50;4996372;28;20081;-84
2021/12/20 00:31:18;;;;;;;6.47;3.53;;;;;;;-3.68;75.61;96923.34;4996256;28;20121;-85
2021/12/20 00:33:45;;;;;;;6.30;3.47;;;;;;;-3.66;75.49;96930.16;4979043;28;20109;-84
2021/12/20 00:36:20;;;;;;;5.53;3.13;;;;;;;-3.77;75.20;96926.63;4980703;28;20104;-84
2021/12/20 00:41:35;;;;;;;5.07;2.83;;;;;;;-3.79;75.37;96933.41;5003910;28;20046;-83
2021/12/20 00:44:02;;;;;;;6.25;3.50;;;;;;;-3.81;75.43;96935.06;4998176;28;20057;-85
2021/12/20 00:46:50;;;;;;;4.28;3.00;;;;;;;-3.83;75.30;96917.22;5000268;28;20061;-85
2021/12/20 00:49:17;;;;;;;4.97;3.10;;;;;;;-3.75;75.26;96940.25;4977165;28;20065;-85
2021/12/20 00:51:44;;;;;;;6.40;3.17;;;;;;;-3.76;75.34;96947.06;5032487;28;20064;-85
2021/12/20 00:54:11;;;;;;;6.25;3.20;;;;;;;-3.82;75.21;96941.88;5001142;28;20064;-86
2021/12/20 00:56:39;;;;;;;4.18;2.65;;;;;;;-3.88;75.14;96940.94;5012277;28;20054;-85
2021/12/20 00:59:07;;;;;;;3.67;2.63;;;;;;;-3.84;75.04;96956.31;4997041;28;20054;-85
2021/12/20 01:01:34;;;;;;;3.75;2.53;;;;;;;-3.82;74.86;96952.09;4996563;28;20210;-85
2021/12/20 01:04:02;;;;;;;4.03;2.80;;;;;;;-3.86;75.10;96957.13;4996176;28;20403;-85
2021/12/20 01:06:29;;;;;;;5.00;2.83;;;;;;;-3.95;75.21;96942.56;5000756;28;20140;-85
2021/12/20 01:08:56;;;;;;;5.10;2.78;;;;;;;-3.92;75.31;96953.63;4999646;28;20101;-85
2021/12/20 01:11:27;;;;;;;5.05;3.00;;;;;;;-3.90;75.17;96976.63;5013486;28;20038;-84
2021/12/20 01:13:56;;;;;;;3.85;2.67;;;;;;;-3.96;74.98;96968.88;4999725;28;20046;-84
2021/12/20 01:16:30;;;;;;;5.45;3.08;;;;;;;-4.00;74.50;96983.31;4963889;28;20519;-84
2021/12/20 01:18:58;;;;;;;5.07;2.90;;;;;;;-4.09;74.72;96984.84;5004300;28;20529;-86
2021/12/20 01:21:26;;;;;;;3.03;2.72;;;;;;;-4.08;74.78;96984.88;4982007;28;20058;-85
2021/12/20 01:23:53;;;;;;;4.93;3.35;;;;;;;-4.10;74.79;96986.53;4979430;28;20423;-85
2021/12/20 01:26:21;;;;;;;4.43;2.60;;;;;;;-4.14;75.23;96977.13;4979550;28;20062;-86
2021/12/20 01:28:48;;;;;;;4.55;3.00;;;;;;;-4.13;75.11;96995.00;4996512;28;20092;-86
2021/12/20 01:31:15;;;;;;;4.30;2.70;;;;;;;-4.15;75.10;97006.88;4997786;28;20062;-85
2021/12/20 01:33:42;;;;;;;3.95;2.60;;;;;;;-4.22;75.26;96994.84;5014906;28;20034;-87
2021/12/20 01:36:09;;;;;;;3.20;2.42;;;;;;;-4.23;74.90;96999.94;5020027;28;20030;-86
2021/12/20 01:38:36;;;;;;;3.95;2.50;;;;;;;-4.23;75.27;96999.94;5003280;28;20053;-86
2021/12/20 01:41:03;;;;;;;4.60;2.40;;;;;;;-4.27;75.26;96993.06;5019681;28;20069;-85
2021/12/20 01:43:30;;;;;;;3.50;2.38;;;;;;;-4.25;74.94;97002.47;5019695;28;20038;-85
2021/12/20 01:45:59;;;;;;;2.65;2.40;;;;;;;-4.33;75.09;97004.03;5002915;28;20038;-85
2021/12/20 01:48:26;;;;;;;3.53;2.40;;;;;;;-4.37;75.17;97007.34;5001516;28;20054;-84
2021/12/20 01:53:38;;;;;;;3.42;2.25;;;;;;;-4.49;75.10;97015.66;4997421;28;20035;-85
2021/12/20 01:56:08;;;;;;;3.80;2.50;;;;;;;-4.52;75.05;97025.78;4997739;28;20530;-85
2021/12/20 01:58:35;;;;;;;3.43;2.30;;;;;;;-4.48;75.21;97032.66;4984941;28;20078;-87
2021/12/20 02:03:40;;;;;;;3.40;2.03;;;;;;;-4.57;75.28;97028.25;4982696;28;20585;-86
2021/12/20 02:06:32;;;;;;;2.80;2.50;;;;;;;-4.53;75.41;97045.31;4982081;28;20499;-86
2021/12/20 02:09:03;;;;;;;4.03;2.70;;;;;;;-4.55;75.41;97057.16;4984683;28;20511;-86
2021/12/20 02:11:34;;;;;;;3.15;2.00;;;;;;;-4.58;75.81;97062.22;4980956;28;20066;-85
2021/12/20 02:14:03;;;;;;;3.28;2.10;;;;;;;-4.59;75.55;97067.28;4983082;28;20110;-87
2021/12/20 02:16:30;;;;;;;2.38;1.80;;;;;;;-4.58;75.39;97077.50;4984201;28;20055;-84
2021/12/20 02:19:01;;;;;;;3.55;2.35;;;;;;;-4.64;75.58;97056.16;4983723;28;20503;-84
2021/12/20 02:21:30;;;;;;;3.20;1.98;;;;;;;-4.59;75.53;97062.19;4997600;28;20053;-84
2021/12/20 02:23:57;;;;;;;3.45;2.20;;;;;;;-4.77;75.28;97053.38;4998391;28;20031;-84
2021/12/20 02:26:25;;;;;;;2.35;1.83;;;;;;;-4.76;75.55;97059.34;4999311;28;20050;-84
2021/12/20 02:28:54;;;;;;;2.83;1.98;;;;;;;-4.69;75.65;97073.88;4998878;28;20034;-84
2021/12/20 02:37:13;;;;;;;5.53;2.00;;;;;;;-4.87;75.80;97073.56;4999060;28;20058;-84
2021/12/20 02:39:41;;;;;;;2.60;1.90;;;;;;;-4.90;75.71;97089.63;4999069;28;20049;-85
2021/12/20 02:42:11;;;;;;;2.03;1.70;;;;;;;-4.80;75.35;97098.31;4999287;28;20054;-85
2021/12/20 02:44:46;;;;;;;1.75;1.55;;;;;;;-4.88;75.29;97105.81;4982599;28;20039;-85
2021/12/20 02:47:26;;;;;;;3.35;1.80;;;;;;;-4.93;75.38;97104.84;5030917;28;20102;-85
2021/12/20 02:49:53;;;;;;;3.50;1.90;;;;;;;-4.93;75.64;97115.03;4998315;28;20054;-84
2021/12/20 02:52:20;;;;;;;3.63;1.92;;;;;;;-4.98;75.57;97111.53;4998232;28;20057;-85
2021/12/20 02:54:47;;;;;;;2.55;1.80;;;;;;;-5.00;76.05;97123.38;5005497;28;20037;-85
2021/12/20 02:57:14;;;;;;;2.90;2.00;;;;;;;-5.00;76.03;97108.09;5017396;28;20082;-85
2021/12/20 02:59:41;;;;;;;4.68;2.13;;;;;;;-5.05;76.18;97100.38;5015522;28;20038;-86
2021/12/20 03:02:10;;;;;;;2.47;1.70;;;;;;;-4.91;76.04;97123.56;5022996;28;20046;-85
2021/12/20 03:04:39;;;;;;;2.00;1.80;;;;;;;-4.99;76.31;97125.97;4976251;28;20545;-85
2021/12/20 03:07:14;;;;;;;3.78;2.17;;;;;;;-4.99;76.53;97132.72;4979543;28;20057;-86
2021/12/20 03:09:45;;;;;;;2.42;1.60;;;;;;;-5.00;76.27;97139.50;4979721;28;20065;-86
2021/12/20 03:12:13;;;;;;;2.60;1.98;;;;;;;-5.18;76.10;97113.69;4973303;29;20047;-86
2021/12/20 03:14:44;;;;;;;3.80;1.80;;;;;;;-5.11;76.67;97133.34;4960817;29;20057;-85
2021/12/20 03:17:12;;;;;;;3.25;1.60;;;;;;;-5.18;76.59;97137.44;4961309;29;20119;-85
2021/12/20 03:19:39;;;;;;;1.98;1.77;;;;;;;-5.20;76.52;97136.53;4981038;28;20114;-84
2021/12/20 03:22:07;;;;;;;3.45;1.60;;;;;;;-5.38;76.80;97128.50;4969166;29;20111;-86
2021/12/20 03:24:34;;;;;;;2.92;1.88;;;;;;;-5.22;76.68;97148.38;4976920;29;20110;-85
2021/12/20 03:27:02;;;;;;;3.33;1.95;;;;;;;-5.32;76.59;97130.31;4970374;28;20048;-84
2021/12/20 03:29:29;;;;;;;3.28;1.67;;;;;;;-5.28;76.98;97155.88;4968570;28;20112;-84
2021/12/20 03:31:59;;;;;;;1.88;1.63;;;;;;;-5.45;76.80;97127.50;4961066;29;20078;-87
2021/12/20 03:34:27;;;;;;;3.63;1.75;;;;;;;-5.37;76.75;97159.06;4993653;28;20549;-87
2021/12/20 03:36:54;;;;;;;3.55;2.05;;;;;;;-5.51;76.53;97152.81;4966387;29;20070;-86
2021/12/20 03:39:21;;;;;;;2.78;1.50;;;;;;;-5.61;76.56;97155.97;4976775;28;20150;-85
2021/12/20 03:41:48;;;;;;;2.72;1.70;;;;;;;-5.44;77.19;97172.50;4958989;28;20515;-85
2021/12/20 03:44:16;;;;;;;2.53;2.05;;;;;;;-5.53;76.74;97149.34;4959142;28;20063;-85
2021/12/20 03:46:43;;;;;;;3.92;2.15;;;;;;;-5.61;76.65;97155.97;4958638;29;20059;-84
2021/12/20 03:49:10;;;;;;;2.85;1.90;;;;;;;-5.59;77.05;97167.91;4960942;28;20062;-84
2021/12/20 03:51:38;;;;;;;2.38;1.80;;;;;;;-5.56;77.14;97184.91;4944555;28;20054;-87
2021/12/20 03:54:05;;;;;;;3.92;2.08;;;;;;;-5.59;77.06;97188.25;4982133;28;20050;-88
2021/12/20 03:56:33;;;;;;;2.35;1.75;;;;;;;-5.65;76.98;97205.06;4999964;28;20054;-85
2021/12/20 03:59:00;;;;;;;3.33;1.83;;;;;;;-5.69;76.95;97201.56;4999420;28;20472;-85
2021/12/20 04:01:28;;;;;;;3.72;2.17;;;;;;;-5.73;77.03;97197.22;5018046;28;20072;-87
2021/12/20 04:03:57;;;;;;;4.38;1.92;;;;;;;-5.70;77.39;97202.41;5000592;28;20046;-86
2021/12/20 04:06:25;;;;;;;3.58;2.25;;;;;;;-5.71;77.18;97215.06;5017780;28;20058;-87
2021/12/20 04:08:52;;;;;;;2.80;1.67;;;;;;;-5.88;77.01;97201.94;5017477;28;20058;-86
2021/12/20 04:11:20;;;;;;;4.68;2.55;;;;;;;-5.84;77.19;97221.53;5016846;28;20060;-86
2021/12/20 04:13:47;;;;;;;4.32;1.80;;;;;;;-5.89;77.19;97218.00;5017011;28;20513;-85
2021/12/20 04:16:14;;;;;;;5.18;2.60;;;;;;;-5.93;77.81;97221.31;5016968;28;20145;-86
2021/12/20 04:18:41;;;;;;;5.43;2.03;;;;;;;-5.90;77.67;97229.84;5017054;28;20060;-85
2021/12/20 04:21:13;;;;;;;2.05;1.52;;;;;;;-5.99;77.35;97222.88;5016436;28;20410;-89
2021/12/20 04:23:40;;;;;;;4.80;2.00;;;;;;;-6.02;77.63;97234.69;5017214;28;20060;-88
2021/12/20 04:26:07;;;;;;;7.53;2.30;;;;;;;-6.01;77.80;97232.16;5020824;28;20482;-88
2021/12/20 04:28:35;;;;;;;4.38;2.00;;;;;;;-6.00;77.63;97248.25;5000772;28;20508;-87
2021/12/20 04:31:02;;;;;;;3.05;1.75;;;;;;;-6.04;77.96;97234.63;5017956;28;20050;-83
2021/12/20 04:33:29;;;;;;;3.00;1.98;;;;;;;-5.97;77.84;97251.75;4989349;28;20481;-85
2021/12/20 04:35:57;;;;;;;3.75;2.38;;;;;;;-5.94;77.83;97250.94;4999851;28;20060;-84
2021/12/20 04:38:27;;;;;;;4.28;2.22;;;;;;;-6.03;78.00;97238.88;5016708;28;20518;-86
2021/12/20 04:40:54;;;;;;;4.03;1.77;;;;;;;-5.93;77.55;97279.78;4999708;28;20096;-84
2021/12/20 04:43:22;;;;;;;3.17;1.75;;;;;;;-6.07;77.40;97261.63;4998586;28;20396;-85
2021/12/20 04:45:49;;;;;;;3.00;1.88;;;;;;;-6.02;77.73;97273.66;5017117;28;20068;-86
2021/12/20 04:48:22;;;;;;;3.45;1.83;;;;;;;-6.15;78.16;97265.63;5003273;28;20144;-84
2021/12/20 04:50:52;;;;;;;3.67;1.70;;;;;;;-6.00;77.81;97279.66;5000709;28;20066;-85
2021/12/20 04:53:25;;;;;;;3.88;2.30;;;;;;;-6.03;77.89;97296.47;5000486;28;20127;-84
2021/12/20 04:55:52;;;;;;;4.20;2.10;;;;;;;-6.07;77.83;97299.75;5000841;28;20125;-83
2021/12/20 04:58:19;;;;;;;4.03;2.20;;;;;;;-6.22;77.54;97257.84;4980359;28;20054;-84
2021/12/20 05:00:47;;;;;;;3.60;1.90;;;;;;;-6.10;77.25;97292.06;4980945;28;20427;-86
2021/12/20 05:03:14;;;;;;;3.58;2.20;;;;;;;-6.21;77.33;97295.16;4981967;28;20505;-87
2021/12/20 05:05:42;;;;;;;4.60;2.15;;;;;;;-6.20;77.34;97307.03;4997870;28;20557;-88
2021/12/20 05:08:11;;;;;;;5.78;2.47;;;;;;;-6.35;77.55;97295.59;4999408;28;20058;-86
2021/12/20 05:10:40;;;;;;;1.98;1.60;;;;;;;-6.21;77.68;97318.03;4980424;28;20062;-86
2021/12/20 05:13:10;;;;;;;5.28;2.40;;;;;;;-6.25;77.62;97322.97;5008952;28;20411;-85
2021/12/20 05:15:38;;;;;;;4.05;1.85;;;;;;;-6.32;77.30;97328.69;4999797;28;20141;-85
2021/12/20 05:18:08;;;;;;;3.45;2.13;;;;;;;-6.33;77.46;97325.28;4980551;28;20061;-85
2021/12/20 05:20:36;;;;;;;3.22;2.17;;;;;;;-6.29;77.23;97339.81;4996976;28;20051;-85
2021/12/20 05:23:04;;;;;;;4.18;2.17;;;;;;;-6.38;77.32;97317.53;4995128;28;20058;-85
2021/12/20 05:25:32;;;;;;;3.83;2.35;;;;;;;-6.30;77.33;97338.09;4980026;28;20054;-86
2021/12/20 05:27:59;;;;;;;3.63;2.58;;;;;;;-6.30;78.06;97343.19;4998176;28;20043;-86
2021/12/20 05:30:27;;;;;;;3.15;2.17;;;;;;;-6.40;77.60;97333.56;4998287;28;20080;-86
2021/12/20 05:32:54;;;;;;;3.53;2.30;;;;;;;-6.38;78.15;97353.09;4999189;28;20046;-85
2021/12/20 05:35:22;;;;;;;6.13;3.22;;;;;;;-6.33;78.14;97360.88;4996069;28;20105;-85
2021/12/20 05:37:52;;;;;;;3.75;2.55;;;;;;;-6.31;77.86;97354.16;5001935;28;20498;-85
2021/12/20 05:40:20;;;;;;;4.60;3.05;;;;;;;-6.35;78.14;97346.41;4995971;28;20058;-85
2021/12/20 05:42:48;;;;;;;4.57;2.35;;;;;;;-6.22;77.76;97368.81;4997957;28;20051;-84
2021/12/20 05:45:17;;;;;;;4.82;2.20;;;;;;;-6.22;77.79;97378.97;4986402;28;20046;-84
2021/12/20 05:47:45;;;;;;;3.90;2.60;;;;;;;-6.39;77.92;97351.41;4996626;28;20046;-85
2021/12/20 05:50:17;;;;;;;5.13;2.88;;;;;;;-6.22;77.96;97384.91;4995619;28;20220;-85
2021/12/20 05:52:44;;;;;;;5.60;2.05;;;;;;;-6.23;77.56;97400.13;4997100;28;20062;-85
2021/12/20 05:55:11;;;;;;;4.97;2.67;;;;;;;-6.30;77.65;97380.41;5006614;28;20395;-84
2021/12/20 05:57:39;;;;;;;4.45;2.40;;;;;;;-6.29;77.88;97388.09;5015318;28;20057;-83
2021/12/20 06:00:14;;;;;;;4.30;2.42;;;;;;;-6.22;77.67;97396.75;5016286;28;20050;-83
2021/12/20 06:02:47;;;;;;;3.75;2.10;;;;;;;-6.22;77.90;97401.84;5015955;28;20046;-84
2021/12/20 06:05:16;;;;;;;3.53;2.40;;;;;;;-6.25;78.14;97400.06;5016730;28;20084;-83
2021/12/20 06:07:43;;;;;;;3.75;2.05;;;;;;;-6.26;78.30;97400.91;5035392;28;20109;-84
2021/12/20 06:10:14;;;;;;;4.13;2.05;;;;;;;-6.25;77.84;97410.25;5037597;28;20097;-84
2021/12/20 06:12:42;;;;;;;4.65;2.38;;;;;;;-6.28;77.74;97422.88;5020322;28;20133;-81
2021/12/20 06:15:11;;;;;;;5.05;2.63;;;;;;;-6.24;77.90;97416.19;5020826;28;20061;-84
2021/12/20 06:17:39;;;;;;;2.30;1.63;;;;;;;-6.35;77.42;97409.91;5028784;28;20122;-83
2021/12/20 06:20:09;;;;;;;4.38;2.10;;;;;;;-6.27;77.32;97431.34;5009853;28;20054;-83
2021/12/20 06:22:36;;;;;;;4.25;2.35;;;;;;;-6.30;77.30;97434.66;5038162;28;20049;-82
2021/12/20 06:25:04;;;;;;;6.70;2.30;;;;;;;-6.29;77.21;97455.84;5000551;28;20056;-83
2021/12/20 06:27:32;;;;;;;2.40;2.03;;;;;;;-6.32;77.63;97446.44;5030270;28;20045;-84
2021/12/20 06:29:59;;;;;;;4.43;2.10;;;;;;;-6.42;77.54;97454.59;4980727;28;20461;-82
2021/12/20 06:32:26;;;;;;;3.08;2.20;;;;;;;-6.41;77.26;97463.94;5013833;28;20092;-83
2021/12/20 06:34:53;;;;;;;4.22;2.50;;;;;;;-6.47;77.55;97471.38;5005358;28;20060;-84
2021/12/20 06:37:20;;;;;;;5.60;2.40;;;;;;;-6.68;77.60;97413.13;5028655;28;20118;-82
2021/12/20 06:39:47;;;;;;;4.30;2.20;;;;;;;-6.33;77.27;97462.50;4998342;28;20060;-83
2021/12/20 06:42:14;;;;;;;4.45;2.30;;;;;;;-6.37;76.60;97473.38;5023026;28;20097;-83
2021/12/20 06:44:42;;;;;;;4.20;2.42;;;;;;;-6.41;76.98;97485.13;5033882;28;20087;-84
2021/12/20 06:47:09;;;;;;;4.25;2.42;;;;;;;-6.28;77.34;97485.50;5035545;28;20053;-91
2021/12/20 06:49:37;;;;;;;3.47;2.10;;;;;;;-6.27;77.08;97494.88;5019934;28;20049;-86
2021/12/20 06:52:04;;;;;;;4.18;2.60;;;;;;;-6.31;77.16;97482.88;5019133;28;20049;-87
2021/12/20 06:54:32;;;;;;;4.82;2.42;;;;;;;-6.26;76.71;97484.75;5045731;28;20098;-85
2021/12/20 06:56:59;;;;;;;2.78;2.00;;;;;;;-6.26;76.20;97499.13;4999810;28;20030;-85
2021/12/20 06:59:26;;;;;;;4.50;2.60;;;;;;;-6.25;76.57;97499.19;5017062;28;20054;-80
2021/12/20 07:01:53;;;;;;;3.20;1.92;;;;;;;-6.46;76.12;97484.09;5016013;28;20054;-82
2021/12/20 07:04:20;;;;;;;4.13;2.42;;;;;;;-6.32;76.19;97519.25;5010359;28;20113;-83
2021/12/20 07:06:48;;;;;;;3.80;2.28;;;;;;;-6.38;76.11;97508.09;4988791;28;20090;-86
2021/12/20 07:09:15;;;;;;;3.55;2.05;;;;;;;-6.34;75.99;97518.38;5022601;28;20529;-84
2021/12/20 07:11:43;;;;;;;4.07;2.40;;;;;;;-6.48;75.58;97528.06;5005833;28;20384;-84
2021/12/20 07:14:11;;;;;;;3.50;2.30;;;;;;;-6.44;75.48;97533.28;5012698;28;20054;-84
2021/12/20 07:16:41;;;;;;;5.60;2.33;;;;;;;-6.61;75.92;97509.00;4983936;28;20048;-85
2021/12/20 07:19:09;;;;;;;5.93;2.45;;;;;;;-6.46;76.17;97536.59;4997370;28;20058;-85
2021/12/20 07:21:36;;;;;;;3.63;2.10;;;;;;;-6.45;76.01;97534.13;5002338;28;20068;-83
2021/12/20 07:24:04;;;;;;;3.83;2.38;;;;;;;-6.40;75.61;97557.13;4996805;28;20092;-83
2021/12/20 07:26:31;;;;;;;4.43;2.47;;;;;;;-6.41;75.87;97548.66;4975822;28;20552;-83
2021/12/20 07:29:00;;;;;;;7.35;4.32;;;;;;;-6.42;75.62;97554.53;4994929;28;20058;-86
2021/12/20 07:31:27;;;;;;;6.18;2.88;;;;;;;-6.33;75.07;97568.34;4994163;28;20078;-85
2021/12/20 07:33:54;;;;;;;3.20;2.60;;;;;;;-6.30;75.09;97559.16;4995201;28;20085;-84
2021/12/20 07:36:22;;;;;;;3.13;2.30;;;;;;;-6.41;75.27;97547.75;4994262;28;20146;-84
2021/12/20 07:38:52;;;;;;;3.55;2.13;;;;;;;-6.40;75.11;97554.59;4994485;28;20114;-85
2021/12/20 07:41:21;;;;;;;3.78;2.42;;;;;;;-6.33;75.24;97573.44;4994771;28;20070;-84
2021/12/20 07:43:50;;;;;;;4.40;2.50;;;;;;;-6.33;74.55;97576.84;4979969;28;20061;-84
2021/12/20 07:46:22;;;;;;;3.35;2.50;;;;;;;-6.40;75.38;97577.44;4977544;28;20081;-87
2021/12/20 07:48:50;;;;;;;4.45;2.50;;;;;;;-6.43;74.85;97583.31;4997929;28;20426;-86
2021/12/20 07:51:18;;;;;;;4.82;2.50;;;;;;;-6.50;75.00;97590.66;4981179;28;20150;-85
2021/12/20 07:53:46;;;;;;;5.32;2.15;;;;;;;-6.51;74.99;97588.94;4998227;28;20054;-85
2021/12/20 07:56:13;;;;;;;4.07;2.60;;;;;;;-6.57;74.92;97570.94;4983864;28;20088;-87
2021/12/20 07:58:42;;;;;;;4.85;2.70;;;;;;;-6.44;74.74;97593.41;4996295;28;20050;-87
2021/12/20 08:01:11;;;;;;;4.53;2.53;;;;;;;-6.41;74.97;97602.00;5001618;28;20057;-85
2021/12/20 08:03:41;;;;;;;6.63;2.80;;;;;;;-6.40;74.33;97595.25;5018529;28;20079;-85
2021/12/20 08:06:08;;;;;;;4.80;2.58;;;;;;;-6.49;74.42;97598.34;5001852;28;20057;-88
2021/12/20 08:08:36;;;;;;;3.47;1.92;;;;;;;-6.38;74.56;97603.78;5020018;28;20493;-85
2021/12/20 08:11:06;;;;;;;;;;;;;;;-6.40;75.00;97608.78;5026338;28;20077;-90
2021/12/20 08:13:35;;;;;;;4.45;2.83;;;;;;;-6.53;74.76;97588.03;5025053;28;19992;-85
2021/12/20 08:16:02;;;;;;;4.00;2.40;;;;;;;-6.47;73.84;97599.25;5022527;28;20065;-87
2021/12/20 08:18:30;;;;;;;6.78;2.47;;;;;;;-6.34;74.28;97609.84;5036279;28;20085;-84
2021/12/20 08:20:56;;;;;;;5.03;2.67;;;;;;;-6.21;73.84;97627.22;5019094;28;20038;-86
2021/12/20 08:23:24;;;;;;;4.55;2.70;;;;;;;-6.15;73.62;97621.44;5036888;28;20125;-88
2021/12/20 08:25:51;;;;;;;6.03;2.70;;;;;;;-6.12;72.90;97621.56;5014933;28;20125;-86
2021/12/20 08:28:18;;;;;;;5.85;2.67;;;;;;;-6.13;72.44;97641.03;5031585;28;20061;-87
2021/12/20 08:30:46;;;;;;;7.10;3.25;;;;;;;-6.20;73.18;97614.53;4999421;28;20503;-86
2021/12/20 08:33:13;;;;;;;5.82;2.95;;;;;;;-6.08;72.94;97636.97;4998167;28;20050;-90
2021/12/20 08:35:42;;;;;;;5.28;2.60;;;;;;;-6.10;73.25;97635.19;4997900;28;20435;-88
2021/12/20 08:38:12;;;;;;;6.55;3.05;;;;;;;-6.28;72.74;97623.59;5030546;28;20112;-87
2021/12/20 08:40:39;;;;;;;3.65;2.50;;;;;;;-6.08;72.92;97638.66;5013944;28;20073;-89
2021/12/20 08:43:06;;;;;;;5.05;2.92;;;;;;;-6.17;72.86;97639.22;4998818;28;20609;-89
2021/12/20 08:45:33;;;;;;;4.15;2.42;;;;;;;-6.10;72.88;97656.38;4998642;28;20117;-90
2021/12/20 08:48:04;;;;;;;6.32;2.78;;;;;;;-6.07;73.12;97669.19;4997107;28;20434;-89
2021/12/20 08:50:33;;;;;;;5.15;2.95;;;;;;;-6.13;72.08;97681.72;5030720;28;20054;-92
2021/12/20 08:53:00;;;;;;;6.70;2.90;;;;;;;-6.46;72.75;97636.53;4999698;28;20430;-88
2021/12/20 08:55:28;;;;;;;6.22;2.95;;;;;;;-6.22;72.45;97683.91;5016344;28;20073;-87
2021/12/20 08:57:58;;;;;;;4.68;2.92;;;;;;;-6.42;72.80;97645.13;5000834;28;20061;-85
2021/12/20 09:03:25;;;;;;;5.75;3.20;;;;;;;-6.66;71.96;97661.25;5019610;28;20050;-85
2021/12/20 09:05:53;;;;;;;6.90;2.75;;;;;;;-6.66;72.11;97691.72;5018504;28;20050;-87
2021/12/20 09:08:21;;;;;;;4.82;2.67;;;;;;;-6.65;71.86;97705.28;4998920;28;20073;-87
2021/12/20 09:11:07;;;;;;;6.97;3.58;;;;;;;-6.64;72.62;97702.78;5016344;28;20152;-86
2021/12/20 09:13:34;;;;;;;5.53;3.00;;;;;;;-6.63;72.24;97689.28;5014117;28;20057;-86
2021/12/20 09:16:02;;;;;;;6.72;3.15;;;;;;;-6.45;72.17;97706.00;5007137;28;20406;-83
2021/12/20 09:18:30;;;;;;;5.95;3.30;;;;;;;-6.47;71.62;97683.09;5023680;28;20058;-89
2021/12/20 09:20:57;;;;;;;6.03;2.70;;;;;;;-6.34;71.78;97719.09;5018312;28;20076;-87
2021/12/20 09:23:30;;;;;;;7.95;3.80;;;;;;;-6.50;71.46;97687.19;5018700;28;20137;-90
2021/12/20 09:26:00;;;;;;;4.63;2.65;;;;;;;-6.70;70.68;97681.41;5018786;28;20046;-86
2021/12/20 09:28:27;;;;;;;;;;;;;;;-6.66;72.16;97723.88;5017597;28;20505;-84
2021/12/20 09:30:55;;;;;;;7.15;3.15;;;;;;;-6.68;71.77;97718.72;5015877;28;19925;-89
2021/12/20 09:33:22;;;;;;;6.95;2.88;;;;;;;-6.62;71.18;97730.81;4981989;28;20077;-88
2021/12/20 09:35:51;;;;;;;7.47;3.33;;;;;;;-6.69;71.35;97744.94;4998407;28;20536;-89
2021/12/20 09:38:20;;;;;;;5.15;3.33;;;;;;;-6.64;71.35;97745.97;5003677;28;20054;-88
2021/12/20 09:43:29;;;;;;;8.55;4.00;;;;;;;-6.67;70.81;97733.13;5016313;28;20506;-89
2021/12/20 09:45:58;;;;;;;6.68;3.10;;;;;;;-6.68;71.26;97740.72;5001289;28;20490;-88
2021/12/20 09:48:25;;;;;;;4.68;2.78;;;;;;;-6.66;71.00;97750.13;4997052;28;20534;-87
2021/12/20 09:50:57;;;;;;;8.38;3.90;;;;;;;-6.88;70.27;97724.72;5014251;28;20572;-84
2021/12/20 09:53:25;;;;;;;9.48;4.32;;;;;;;-6.78;70.57;97753.88;5029966;28;20115;-83
2021/12/20 09:55:52;;;;;;;9.05;3.75;;;;;;;-6.77;70.90;97759.03;5014857;28;20510;-86
2021/12/20 09:58:25;;;;;;;7.55;3.33;;;;;;;-6.74;70.57;97764.22;5019642;28;20502;-85
2021/12/20 10:00:53;;;;;;;8.55;4.00;;;;;;;-6.83;70.20;97735.94;5014725;28;20054;-86
2021/12/20 10:03:24;;;;;;;5.38;2.95;;;;;;;-6.75;70.06;97772.66;5015286;28;20141;-86
2021/12/20 10:05:55;;;;;;;;;;;;;;;-6.78;70.64;97774.19;5016036;28;20054;-85
2021/12/20 10:08:38;;;;;;;6.82;3.22;;;;;;;-6.69;70.47;97782.16;4996805;28;19925;-86
2021/12/20 10:11:16;;;;;;;10.10;3.72;;;;;;;-6.56;70.84;97775.84;4996386;28;20054;-86
2021/12/20 10:13:43;;;;;;;6.88;3.30;;;;;;;-6.67;70.45;97781.41;5014309;28;20059;-86
2021/12/20 10:16:20;;;;;;;7.50;3.67;;;;;;;-6.61;70.11;97786.72;5029993;28;20045;-82
2021/12/20 10:18:48;;;;;;;6.70;2.80;;;;;;;-6.77;69.96;97774.25;5027025;28;20027;-82
2021/12/20 10:21:16;;;;;;;7.32;3.58;;;;;;;-6.80;69.37;97790.25;5008591;28;20034;-85
2021/12/20 10:23:48;;;;;;;8.05;2.90;;;;;;;-6.83;69.58;97810.44;5016409;28;20084;-85
2021/12/20 10:26:19;;;;;;;5.88;2.88;;;;;;;-7.00;70.08;97806.38;5018457;28;20078;-84
2021/12/20 10:28:49;;;;;;;9.13;3.38;;;;;;;-7.02;70.21;97800.38;5017502;28;20038;-84
2021/12/20 10:31:21;;;;;;;6.47;3.30;;;;;;;-6.98;70.13;97809.84;5001241;28;20054;-87
2021/12/20 10:33:58;;;;;;;10.80;4.32;;;;;;;-6.99;70.65;97805.56;5000609;28;20120;-90
2021/12/20 10:36:31;;;;;;;5.40;3.30;;;;;;;-6.98;70.18;97809.84;4997538;28;20093;-86
2021/12/20 10:39:00;;;;;;;5.88;2.60;;;;;;;-7.00;69.66;97812.31;4997177;28;20069;-86
2021/12/20 10:41:37;;;;;;;11.40;4.50;;;;;;;-7.04;70.01;97815.53;4997585;28;20065;-89
2021/12/20 10:44:19;;;;;;;5.05;2.90;;;;;;;-7.06;69.42;97824.75;4982643;28;20513;-87
2021/12/20 10:46:52;;;;;;;6.20;2.80;;;;;;;-7.24;68.86;97812.19;5010197;28;20057;-85
2021/12/20 10:49:26;;;;;;;7.97;3.70;;;;;;;-7.17;69.34;97817.53;4996468;28;20053;-87
2021/12/20 10:51:54;;;;;;;6.60;3.47;;;;;;;-7.04;69.62;97827.34;5016146;28;20133;-90
2021/12/20 10:54:32;;;;;;;7.00;3.53;;;;;;;-6.85;69.55;97839.97;5030491;28;20042;-84
2021/12/20 10:57:05;;;;;;;5.18;2.60;;;;;;;-7.17;68.75;97808.25;5013761;28;20056;-86
2021/12/20 10:59:50;;;;;;;7.00;3.58;;;;;;;-7.15;69.45;97844.69;4998890;28;20080;-85
2021/12/20 11:05:02;;;;;;;4.68;2.53;;;;;;;-7.24;69.82;97850.25;5014618;28;20148;-87
2021/12/20 11:10:07;;;;;;;6.85;2.92;;;;;;;-7.21;69.75;97897.72;4997900;28;20057;-85
2021/12/20 11:12:35;;;;;;;6.28;3.00;;;;;;;-7.21;70.50;97895.19;5014926;28;20050;-86
2021/12/20 11:15:09;;;;;;;5.32;2.60;;;;;;;-7.34;70.20;97882.81;4997035;28;20152;-86
2021/12/20 11:17:41;;;;;;;5.25;2.67;;;;;;;-7.35;70.96;97906.44;4984661;28;20433;-85
2021/12/20 11:20:09;;;;;;;4.40;2.95;;;;;;;-7.50;70.08;97901.59;5020825;28;20065;-86
2021/12/20 11:22:37;;;;;;;6.25;2.38;;;;;;;-7.86;70.26;97858.63;5000723;28;20054;-85
2021/12/20 11:25:11;;;;;;;5.07;2.60;;;;;;;-7.68;70.16;97911.78;5022654;28;20458;-83
2021/12/20 11:27:51;;;;;;;7.00;2.90;;;;;;;-7.81;69.89;97892.63;5040497;28;20486;-85
2021/12/20 11:30:22;;;;;;;7.68;3.75;;;;;;;-7.79;70.19;97888.50;4993894;28;20069;-87
2021/12/20 11:32:50;;;;;;;9.07;4.50;;;;;;;-7.74;70.17;97899.72;5044463;28;20120;-86
2021/12/20 11:35:21;;;;;;;12.57;4.10;;;;;;;-7.51;70.43;97915.06;5005078;28;20057;-87
2021/12/20 11:37:49;;;;;;;6.50;3.38;;;;;;;-7.50;70.12;97921.88;5002907;28;20073;-86
2021/12/20 11:40:19;;;;;;;10.38;4.75;;;;;;;-7.42;70.31;97920.50;5020889;28;20057;-87
2021/12/20 11:42:54;;;;;;;7.20;3.90;;;;;;;-7.56;69.94;97902.19;4988208;28;20050;-86
2021/12/20 11:45:23;;;;;;;6.03;2.88;;;;;;;-7.66;69.90;97903.47;5030073;28;20127;-86
2021/12/20 11:47:53;;;;;;;5.63;2.78;;;;;;;-7.54;69.79;97946.25;5020811;28;20057;-88
2021/12/20 11:50:35;;;;;;;5.43;3.47;;;;;;;-7.68;69.87;97939.69;5001717;28;20395;-87
2021/12/20 11:53:06;;;;;;;5.07;2.90;;;;;;;-7.63;70.32;97953.44;5033922;28;20053;-88
2021/12/20 11:55:36;;;;;;;5.93;2.83;;;;;;;-7.58;70.61;97956.19;5021042;28;20514;-89
2021/12/20 11:58:24;;;;;;;3.80;2.17;;;;;;;-7.83;69.50;97955.06;5006220;28;20046;-87
2021/12/20 12:00:55;;;;;;;4.63;2.60;;;;;;;-7.90;69.53;97960.69;5000991;28;20094;-87
2021/12/20 12:03:31;;;;;;;4.25;2.65;;;;;;;-7.97;69.87;97951.06;4966250;28;20058;-87
2021/12/20 12:06:03;;;;;;;6.32;2.88;;;;;;;-7.91;69.98;97964.03;4981059;28;20145;-86
2021/12/20 12:08:38;;;;;;;5.88;2.60;;;;;;;-7.94;69.72;97964.72;4993906;28;20043;-88